Time;durP1;ratioP1;P1;durP2;ratioP2;P2;SDS_P1;SDS_P2;PMS_P1;PMS_P2;Temp;Humidity;BMP_temperature;BMP_pressure;BME280_temperature;BME280_humidity;BME280_pressure;Samples;Min_cycle;Max_cycle;Signal;HPM_P1;HPM_P2
2021/06/26 00:01:49;;;;;;;32.20;30.30;;;17.60;84.80;;;;;;5028482;28;20469;-78
2021/06/26 00:04:16;;;;;;;32.20;30.10;;;17.70;84.70;;;;;;4993983;28;20482;-78
2021/06/26 00:06:43;;;;;;;32.33;30.33;;;17.70;84.50;;;;;;5039004;28;20470;-78
2021/06/26 00:09:10;;;;;;;31.30;29.40;;;17.70;84.40;;;;;;5027535;28;20564;-78
2021/06/26 00:11:37;;;;;;;33.27;30.93;;;17.70;84.20;;;;;;4990503;28;20465;-78
2021/06/26 00:14:05;;;;;;;31.77;29.57;;;17.70;84.60;;;;;;4971430;28;20493;-78
2021/06/26 00:16:32;;;;;;;32.53;29.90;;;17.60;85.00;;;;;;4966010;28;20462;-78
2021/06/26 00:19:00;;;;;;;31.70;29.50;;;17.50;85.20;;;;;;4959604;28;21326;-78
2021/06/26 00:21:27;;;;;;;31.63;29.60;;;17.60;85.20;;;;;;4964254;28;20473;-78
2021/06/26 00:23:54;;;;;;;32.03;30.03;;;17.60;85.20;;;;;;4988880;28;20482;-78
2021/06/26 00:26:21;;;;;;;31.90;30.00;;;17.60;85.20;;;;;;4989344;28;20560;-78
2021/06/26 00:28:48;;;;;;;32.37;30.37;;;17.60;85.50;;;;;;5025367;28;20540;-78
2021/06/26 00:31:15;;;;;;;32.60;30.47;;;17.60;85.30;;;;;;5049362;28;20472;-77
2021/06/26 00:33:42;;;;;;;29.37;27.67;;;17.60;85.10;;;;;;4968281;28;20605;-78
2021/06/26 00:36:11;;;;;;;32.47;30.33;;;17.70;84.60;;;;;;5039303;28;20472;-78
2021/06/26 00:38:38;;;;;;;31.60;29.50;;;17.70;84.20;;;;;;4986329;28;20454;-78
2021/06/26 00:41:06;;;;;;;31.87;29.77;;;17.60;84.70;;;;;;4975776;28;20553;-78
2021/06/26 00:43:33;;;;;;;32.10;29.93;;;17.60;84.70;;;;;;4975781;28;20485;-78
2021/06/26 00:46:00;;;;;;;32.80;30.27;;;17.50;84.50;;;;;;5048019;28;21292;-78
2021/06/26 00:48:28;;;;;;;31.67;29.40;;;17.50;84.80;;;;;;4975013;28;20573;-77
2021/06/26 00:50:55;;;;;;;32.77;30.57;;;17.50;84.90;;;;;;5009596;28;20463;-78
2021/06/26 00:53:24;;;;;;;32.23;30.20;;;17.50;84.80;;;;;;5008089;28;20544;-77
2021/06/26 00:55:54;;;;;;;32.70;30.30;;;17.50;84.80;;;;;;4989162;28;20477;-78
2021/06/26 00:58:21;;;;;;;31.63;29.63;;;17.50;84.90;;;;;;4964252;28;20473;-77
2021/06/26 01:00:49;;;;;;;32.00;29.80;;;17.50;84.80;;;;;;4979248;28;20501;-77
2021/06/26 01:03:16;;;;;;;31.57;29.53;;;17.50;85.00;;;;;;4962045;28;20586;-78
2021/06/26 01:05:43;;;;;;;32.03;30.13;;;17.50;85.20;;;;;;5039203;28;20552;-78
2021/06/26 01:08:10;;;;;;;31.33;29.27;;;17.50;85.20;;;;;;4987259;28;20871;-78
2021/06/26 01:10:38;;;;;;;31.30;29.50;;;17.40;85.50;;;;;;4983474;28;20466;-78
2021/06/26 01:13:06;;;;;;;31.30;29.40;;;17.40;85.60;;;;;;4992165;28;20501;-78
2021/06/26 01:15:33;;;;;;;31.90;29.80;;;17.50;85.60;;;;;;5027213;28;20486;-78
2021/06/26 01:18:00;;;;;;;30.80;28.80;;;17.50;85.60;;;;;;5025970;28;20471;-78
2021/06/26 01:20:28;;;;;;;31.30;29.20;;;17.50;85.30;;;;;;5008108;28;20465;-78
2021/06/26 01:22:58;;;;;;;31.57;29.57;;;17.50;85.20;;;;;;4990067;28;20487;-78
2021/06/26 01:25:26;;;;;;;30.73;28.90;;;17.40;85.60;;;;;;4982488;28;20493;-78
2021/06/26 01:27:55;;;;;;;30.73;28.93;;;17.40;85.80;;;;;;4963160;28;20469;-78
2021/06/26 01:30:25;;;;;;;30.90;28.93;;;17.40;85.60;;;;;;4976405;28;20538;-79
2021/06/26 01:32:52;;;;;;;31.40;29.37;;;17.40;85.60;;;;;;4959668;28;20569;-78
2021/06/26 01:35:19;;;;;;;32.30;30.10;;;17.40;85.60;;;;;;4998196;28;20479;-78
2021/06/26 01:37:46;;;;;;;30.93;28.93;;;17.40;85.50;;;;;;4987342;28;20481;-78
2021/06/26 01:40:17;;;;;;;31.60;29.60;;;17.40;85.50;;;;;;4978277;28;20461;-77
2021/06/26 01:42:44;;;;;;;31.10;29.17;;;17.40;85.50;;;;;;4975830;28;20502;-78
2021/06/26 01:45:12;;;;;;;31.00;29.10;;;17.40;85.50;;;;;;5026636;28;20510;-78
2021/06/26 01:47:46;;;;;;;31.60;29.40;;;17.40;85.60;;;;;;5019426;28;20905;-79
2021/06/26 01:50:13;;;;;;;30.50;28.57;;;17.50;85.40;;;;;;4981602;28;20479;-77
2021/06/26 01:52:40;;;;;;;30.53;28.57;;;17.40;85.70;;;;;;4965249;28;20466;-78
2021/06/26 01:55:09;;;;;;;30.97;28.87;;;17.30;86.10;;;;;;4991869;28;20583;-78
2021/06/26 01:57:37;;;;;;;31.80;29.63;;;17.20;86.90;;;;;;4979787;28;20495;-77
2021/06/26 02:00:05;;;;;;;31.43;29.43;;;17.20;87.20;;;;;;5029679;28;20573;-78
2021/06/26 02:02:32;;;;;;;30.40;28.30;;;17.10;87.50;;;;;;4996571;28;20479;-78
2021/06/26 02:04:59;;;;;;;30.90;28.93;;;17.10;87.10;;;;;;5002315;28;21022;-78
2021/06/26 02:07:26;;;;;;;29.53;27.73;;;17.20;86.90;;;;;;5003908;28;20573;-77
2021/06/26 02:09:53;;;;;;;30.17;28.37;;;17.30;86.80;;;;;;4962971;28;20569;-77
2021/06/26 02:12:22;;;;;;;30.03;28.23;;;17.20;86.80;;;;;;4970802;28;20564;-78
2021/06/26 02:14:53;;;;;;;30.80;28.80;;;17.20;87.00;;;;;;5015144;28;20485;-78
2021/06/26 02:17:20;;;;;;;30.63;28.43;;;17.20;87.10;;;;;;4993504;28;21030;-78
2021/06/26 02:19:47;;;;;;;30.97;28.97;;;17.20;86.90;;;;;;4987920;28;21188;-78
2021/06/26 02:22:14;;;;;;;31.40;29.27;;;17.20;86.70;;;;;;4987607;28;21311;-78
2021/06/26 02:24:41;;;;;;;30.97;28.77;;;17.30;86.50;;;;;;5002130;28;20597;-78
2021/06/26 02:27:09;;;;;;;30.20;28.40;;;17.40;86.40;;;;;;5028227;28;20467;-78
2021/06/26 02:29:36;;;;;;;32.20;30.20;;;17.30;86.80;;;;;;5065722;28;20910;-78
2021/06/26 02:32:05;;;;;;;30.13;28.23;;;17.30;87.00;;;;;;4993286;28;20469;-78
2021/06/26 02:34:32;;;;;;;30.73;28.73;;;17.20;87.30;;;;;;5005457;28;20578;-77
2021/06/26 02:37:00;;;;;;;31.70;29.60;;;17.30;87.40;;;;;;5000202;28;20472;-78
2021/06/26 02:39:27;;;;;;;29.27;27.40;;;17.30;87.00;;;;;;5011162;28;20466;-77
2021/06/26 02:41:54;;;;;;;29.77;27.67;;;17.20;87.00;;;;;;4982275;28;20471;-77
2021/06/26 02:44:21;;;;;;;29.73;27.90;;;17.30;86.50;;;;;;4987272;28;20486;-78
2021/06/26 02:46:49;;;;;;;30.10;28.30;;;17.30;86.50;;;;;;4998836;28;21368;-78
2021/06/26 02:49:18;;;;;;;29.93;28.13;;;17.20;86.70;;;;;;5022445;28;20487;-77
2021/06/26 02:51:45;;;;;;;30.80;28.83;;;17.20;86.70;;;;;;5036342;28;21161;-77
2021/06/26 02:54:11;;;;;;;31.37;28.87;;;17.20;86.60;;;;;;5023665;28;20558;-77
2021/06/26 02:56:38;;;;;;;30.63;28.73;;;17.20;86.70;;;;;;5026926;28;20462;-77
2021/06/26 02:59:05;;;;;;;30.57;28.40;;;17.20;86.90;;;;;;5056822;28;20465;-77
2021/06/26 03:01:32;;;;;;;30.87;28.97;;;17.30;86.40;;;;;;4985272;28;20567;-78
2021/06/26 03:03:59;;;;;;;31.40;29.23;;;17.30;86.20;;;;;;5010699;28;20477;-77
2021/06/26 03:06:27;;;;;;;32.90;30.80;;;17.30;86.30;;;;;;5051686;28;20479;-78
2021/06/26 03:08:54;;;;;;;30.97;29.07;;;17.30;86.20;;;;;;4994541;28;21649;-78
2021/06/26 03:11:21;;;;;;;31.30;29.40;;;17.30;86.40;;;;;;4974672;28;20461;-78
2021/06/26 03:13:48;;;;;;;31.27;29.07;;;17.20;86.50;;;;;;4961886;28;20559;-78
2021/06/26 03:16:15;;;;;;;31.27;29.13;;;17.20;86.90;;;;;;5023251;28;20454;-78
2021/06/26 03:18:43;;;;;;;30.63;28.33;;;17.20;86.80;;;;;;4969269;28;20459;-78
2021/06/26 03:21:10;;;;;;;31.07;28.90;;;17.30;86.50;;;;;;4979969;28;20465;-78
2021/06/26 03:23:39;;;;;;;31.53;29.53;;;17.20;86.60;;;;;;4959470;28;20479;-78
2021/06/26 03:26:06;;;;;;;32.13;29.50;;;17.20;86.50;;;;;;5008376;28;20450;-78
2021/06/26 03:28:34;;;;;;;30.90;28.97;;;17.20;86.70;;;;;;5007181;28;20456;-78
2021/06/26 03:31:01;;;;;;;32.57;30.67;;;17.10;87.10;;;;;;4969870;28;20481;-78
2021/06/26 03:33:28;;;;;;;31.77;29.53;;;17.10;87.00;;;;;;4960334;28;20505;-78
2021/06/26 03:35:55;;;;;;;30.33;28.63;;;17.20;87.00;;;;;;4959301;28;20471;-78
2021/06/26 03:38:22;;;;;;;31.57;29.30;;;17.20;87.00;;;;;;5025541;28;20480;-78
2021/06/26 03:40:50;;;;;;;31.03;28.83;;;17.00;87.50;;;;;;4972405;28;20533;-78
2021/06/26 03:43:18;;;;;;;30.10;28.30;;;17.00;87.80;;;;;;4971190;28;20536;-78
2021/06/26 03:45:45;;;;;;;30.30;28.40;;;17.00;87.70;;;;;;5026443;28;20467;-78
2021/06/26 03:48:11;;;;;;;30.13;28.23;;;17.00;87.90;;;;;;5041139;28;21222;-78
2021/06/26 03:50:40;;;;;;;31.00;28.77;;;16.80;88.50;;;;;;4984025;28;21010;-78
2021/06/26 03:53:07;;;;;;;30.90;28.73;;;16.80;88.80;;;;;;4991270;28;20458;-78
2021/06/26 03:55:34;;;;;;;31.17;28.87;;;16.80;88.80;;;;;;4972968;28;20490;-78
2021/06/26 03:58:02;;;;;;;29.83;27.50;;;16.80;88.90;;;;;;5021657;28;20470;-77
2021/06/26 04:00:29;;;;;;;30.70;28.70;;;16.80;89.00;;;;;;4994124;28;20546;-78
2021/06/26 04:02:56;;;;;;;30.90;28.77;;;16.80;88.80;;;;;;5022697;28;21290;-77
2021/06/26 04:05:23;;;;;;;32.43;30.07;;;16.90;88.70;;;;;;4994439;28;20492;-77
2021/06/26 04:07:50;;;;;;;31.20;28.87;;;16.90;88.50;;;;;;4985929;28;20453;-78
2021/06/26 04:10:17;;;;;;;30.93;28.97;;;16.90;88.50;;;;;;4997862;28;20532;-78
2021/06/26 04:12:44;;;;;;;31.40;29.40;;;17.00;88.40;;;;;;5012171;28;20559;-77
2021/06/26 04:15:13;;;;;;;29.97;27.90;;;17.10;88.40;;;;;;5006158;28;20501;-78
2021/06/26 04:17:40;;;;;;;31.50;29.40;;;17.30;87.80;;;;;;4985085;28;21412;-77
2021/06/26 04:20:08;;;;;;;30.50;28.60;;;17.50;86.90;;;;;;4963748;28;20480;-78
2021/06/26 04:22:35;;;;;;;31.60;29.50;;;17.70;86.40;;;;;;4964433;28;20473;-77
2021/06/26 04:25:02;;;;;;;32.60;30.50;;;17.80;85.80;;;;;;4956670;28;20481;-78
2021/06/26 04:27:28;;;;;;;32.53;30.13;;;17.90;85.30;;;;;;4964524;28;20559;-78
2021/06/26 04:29:56;;;;;;;30.23;28.30;;;18.10;84.50;;;;;;5015394;28;20484;-78
2021/06/26 04:32:25;;;;;;;32.33;30.17;;;18.20;83.90;;;;;;5034972;28;20457;-77
2021/06/26 04:34:53;;;;;;;31.20;29.20;;;18.20;83.30;;;;;;5035922;28;20480;-78
2021/06/26 04:37:20;;;;;;;31.33;29.20;;;18.30;83.40;;;;;;4966735;28;20799;-78
2021/06/26 04:39:47;;;;;;;31.13;29.13;;;18.40;82.90;;;;;;4969275;28;20465;-78
2021/06/26 04:42:13;;;;;;;30.33;28.53;;;18.50;82.70;;;;;;4978252;28;20471;-78
2021/06/26 04:44:40;;;;;;;31.23;29.20;;;18.40;82.90;;;;;;5054503;28;20480;-78
2021/06/26 04:47:08;;;;;;;32.43;30.27;;;18.40;83.20;;;;;;4988964;28;20469;-78
2021/06/26 04:49:37;;;;;;;31.83;29.83;;;18.50;83.00;;;;;;5002174;28;20470;-78
2021/06/26 04:52:05;;;;;;;32.93;30.53;;;18.70;82.30;;;;;;5000564;28;21046;-78
2021/06/26 04:54:32;;;;;;;33.00;31.03;;;19.00;81.00;;;;;;5057702;28;20474;-78
2021/06/26 04:56:58;;;;;;;32.93;30.73;;;19.10;80.30;;;;;;4999778;28;20499;-78
2021/06/26 04:59:25;;;;;;;33.07;30.87;;;19.10;80.60;;;;;;5010292;28;20546;-78
2021/06/26 05:01:52;;;;;;;33.00;30.80;;;19.20;80.10;;;;;;4969643;28;20490;-78
2021/06/26 05:04:19;;;;;;;33.10;31.10;;;19.10;80.20;;;;;;5052593;28;20482;-78
2021/06/26 05:06:48;;;;;;;34.40;32.30;;;19.00;80.60;;;;;;5040849;28;20471;-79
2021/06/26 05:09:15;;;;;;;34.23;32.17;;;19.00;80.70;;;;;;4992457;28;20462;-78
2021/06/26 05:11:42;;;;;;;36.60;34.40;;;19.00;81.00;;;;;;4988529;28;20473;-78
2021/06/26 05:14:10;;;;;;;37.03;34.27;;;19.10;81.00;;;;;;5017533;28;20866;-78
2021/06/26 05:16:41;;;;;;;36.43;33.97;;;19.10;81.00;;;;;;4965338;28;20459;-78
2021/06/26 05:19:08;;;;;;;37.47;34.73;;;19.20;81.00;;;;;;4983656;28;21027;-78
2021/06/26 05:21:35;;;;;;;34.80;32.40;;;19.20;80.70;;;;;;4987659;28;20991;-78
2021/06/26 05:24:04;;;;;;;37.30;34.90;;;19.60;79.50;;;;;;5028072;28;20474;-78
2021/06/26 05:26:31;;;;;;;39.07;36.40;;;19.70;79.30;;;;;;5012871;28;20537;-78
2021/06/26 05:28:57;;;;;;;34.87;32.67;;;19.80;79.20;;;;;;5006129;28;20460;-78
2021/06/26 05:31:24;;;;;;;36.40;33.90;;;19.90;79.20;;;;;;4965093;28;20489;-78
2021/06/26 05:33:51;;;;;;;36.37;33.97;;;19.90;79.10;;;;;;4994196;28;20482;-78
2021/06/26 05:36:18;;;;;;;37.17;34.40;;;19.90;79.40;;;;;;5059471;28;20581;-78
2021/06/26 05:38:45;;;;;;;37.70;35.00;;;20.00;79.20;;;;;;5009363;28;20465;-78
2021/06/26 05:41:13;;;;;;;37.30;34.60;;;20.10;78.80;;;;;;4970326;28;20465;-78
2021/06/26 05:43:40;;;;;;;37.97;35.27;;;20.30;78.20;;;;;;4962629;28;20489;-78
2021/06/26 05:46:07;;;;;;;40.50;37.60;;;20.40;77.80;;;;;;5047304;28;20524;-78
2021/06/26 05:48:34;;;;;;;38.50;35.83;;;20.60;77.00;;;;;;5016025;28;20577;-78
2021/06/26 05:51:01;;;;;;;37.27;34.87;;;20.50;77.70;;;;;;4963482;28;20924;-81
2021/06/26 05:53:28;;;;;;;38.27;35.77;;;20.60;78.20;;;;;;5021156;28;20468;-79
2021/06/26 05:55:59;;;;;;;41.33;38.43;;;20.70;78.40;;;;;;5051150;28;20453;-78
2021/06/26 05:58:33;;;;;;;40.80;37.90;;;20.80;77.90;;;;;;4981331;28;20471;-77
2021/06/26 06:01:00;;;;;;;41.30;38.20;;;20.80;78.40;;;;;;4991964;28;20477;-79
2021/06/26 06:03:27;;;;;;;42.30;39.20;;;21.00;78.20;;;;;;5000931;28;20465;-78
2021/06/26 06:05:54;;;;;;;42.83;39.70;;;21.20;77.00;;;;;;5031091;28;20832;-81
2021/06/26 06:08:21;;;;;;;43.40;40.50;;;21.30;76.80;;;;;;5010785;28;20545;-83
2021/06/26 06:10:49;;;;;;;41.70;38.80;;;21.30;76.80;;;;;;5028169;28;20510;-79
2021/06/26 06:13:17;;;;;;;41.63;38.63;;;21.40;76.40;;;;;;4984988;28;20463;-79
2021/06/26 06:15:47;;;;;;;45.70;41.93;;;21.60;75.70;;;;;;4981818;28;21061;-80
2021/06/26 06:18:15;;;;;;;42.33;39.13;;;21.80;75.00;;;;;;5001811;28;20462;-82
2021/06/26 06:20:42;;;;;;;44.07;40.87;;;21.80;74.80;;;;;;5004190;28;20455;-84
2021/06/26 06:23:10;;;;;;;43.93;40.93;;;21.90;74.90;;;;;;4977986;28;20566;-82
2021/06/26 06:25:37;;;;;;;40.73;38.00;;;21.90;74.80;;;;;;5011398;28;20482;-82
2021/06/26 06:28:04;;;;;;;41.30;38.00;;;22.00;74.70;;;;;;4987930;28;20454;-81
2021/06/26 06:30:32;;;;;;;43.73;40.77;;;22.30;73.90;;;;;;5018204;28;20593;-84
2021/06/26 06:33:01;;;;;;;44.00;41.00;;;22.40;73.00;;;;;;4998630;28;20481;-79
2021/06/26 06:35:29;;;;;;;46.57;43.30;;;22.30;72.80;;;;;;5050369;28;20516;-82
2021/06/26 06:37:56;;;;;;;42.80;40.00;;;22.10;73.50;;;;;;5018889;28;20482;-83
2021/06/26 06:40:23;;;;;;;44.03;41.10;;;22.10;74.30;;;;;;5074046;28;20442;-82
2021/06/26 06:42:50;;;;;;;43.67;40.83;;;22.30;73.20;;;;;;5005010;28;20518;-78
2021/06/26 06:45:17;;;;;;;46.17;42.77;;;22.20;73.50;;;;;;4954593;28;20478;-77
2021/06/26 06:47:45;;;;;;;45.67;42.20;;;22.50;72.90;;;;;;4961587;28;20547;-79
2021/06/26 06:50:14;;;;;;;43.27;40.27;;;22.60;72.20;;;;;;5040549;28;20490;-78
2021/06/26 06:52:41;;;;;;;42.00;39.23;;;22.90;71.20;;;;;;4989106;28;20501;-78
2021/06/26 06:55:09;;;;;;;46.83;43.33;;;22.90;70.90;;;;;;4959138;28;20570;-79
2021/06/26 06:57:36;;;;;;;44.33;41.23;;;22.80;71.20;;;;;;4985688;28;20489;-78
2021/06/26 07:00:09;;;;;;;45.13;41.90;;;22.80;70.60;;;;;;4961746;28;20463;-78
2021/06/26 07:02:36;;;;;;;44.80;41.70;;;22.60;71.40;;;;;;4965601;28;20486;-77
2021/06/26 07:05:03;;;;;;;43.33;40.53;;;22.60;71.70;;;;;;4974783;28;21317;-78
2021/06/26 07:07:31;;;;;;;42.30;39.50;;;22.50;72.00;;;;;;5005754;28;21104;-78
2021/06/26 07:09:58;;;;;;;43.23;40.27;;;22.50;71.80;;;;;;4994009;28;21014;-79
2021/06/26 07:12:25;;;;;;;43.30;40.20;;;22.50;71.90;;;;;;4969699;28;20469;-79
2021/06/26 07:14:52;;;;;;;42.53;39.50;;;22.10;73.00;;;;;;4962440;28;21011;-79
2021/06/26 07:17:19;;;;;;;43.23;40.20;;;22.00;73.40;;;;;;4971635;28;20474;-79
2021/06/26 07:19:46;;;;;;;44.07;40.80;;;22.00;73.60;;;;;;4961567;28;20496;-79
2021/06/26 07:22:13;;;;;;;44.73;41.60;;;21.90;74.00;;;;;;4980933;28;20474;-79
2021/06/26 07:24:41;;;;;;;44.00;41.03;;;21.80;73.90;;;;;;4964977;28;20577;-78
2021/06/26 07:27:09;;;;;;;44.03;41.03;;;21.80;74.10;;;;;;4976023;28;20891;-78
2021/06/26 07:29:36;;;;;;;44.57;41.47;;;21.60;74.30;;;;;;4965952;28;20551;-77
2021/06/26 07:32:04;;;;;;;44.13;41.03;;;21.70;74.20;;;;;;4965746;28;20479;-79
2021/06/26 07:34:31;;;;;;;42.40;39.40;;;21.80;73.70;;;;;;4945636;28;20479;-79
2021/06/26 07:36:58;;;;;;;44.40;41.30;;;21.70;73.90;;;;;;4967688;28;20457;-79
2021/06/26 07:39:25;;;;;;;41.13;38.43;;;21.80;73.90;;;;;;4974610;28;20931;-79
2021/06/26 07:41:53;;;;;;;41.90;39.17;;;21.90;73.00;;;;;;4974576;28;20538;-79
2021/06/26 07:44:22;;;;;;;43.60;40.60;;;21.90;72.80;;;;;;4969572;28;20807;-79
2021/06/26 07:46:50;;;;;;;42.00;39.10;;;22.30;71.90;;;;;;4972093;28;20486;-79
2021/06/26 07:49:17;;;;;;;40.70;37.90;;;22.70;70.60;;;;;;4975098;28;20469;-80
2021/06/26 07:51:44;;;;;;;39.37;36.87;;;22.70;69.90;;;;;;4967364;28;20482;-78
2021/06/26 07:54:11;;;;;;;40.70;38.00;;;22.60;70.20;;;;;;4993803;28;20504;-78
2021/06/26 07:56:38;;;;;;;40.90;38.10;;;22.90;68.60;;;;;;4994124;28;20462;-79
2021/06/26 07:59:06;;;;;;;42.03;39.23;;;23.00;68.10;;;;;;4974505;28;20470;-79
2021/06/26 08:01:33;;;;;;;40.07;37.47;;;23.30;68.00;;;;;;4972728;28;20470;-79
2021/06/26 08:04:01;;;;;;;41.80;39.10;;;23.80;66.90;;;;;;4973806;28;20501;-79
2021/06/26 08:06:28;;;;;;;40.13;37.47;;;24.00;66.10;;;;;;4973676;28;20458;-79
2021/06/26 08:08:55;;;;;;;42.20;39.40;;;24.10;65.60;;;;;;5040605;28;21005;-79
2021/06/26 08:11:22;;;;;;;40.80;38.10;;;23.90;65.80;;;;;;5013443;28;20477;-79
2021/06/26 08:13:50;;;;;;;41.83;39.07;;;23.60;66.60;;;;;;4975936;28;20948;-79
2021/06/26 08:16:18;;;;;;;40.87;38.17;;;23.60;66.30;;;;;;4973602;28;21010;-80
2021/06/26 08:18:45;;;;;;;40.77;37.93;;;23.50;66.10;;;;;;4974706;28;20584;-80
2021/06/26 08:21:12;;;;;;;36.17;33.87;;;23.60;65.70;;;;;;4976050;28;20497;-79
2021/06/26 08:23:39;;;;;;;39.03;36.53;;;24.00;64.50;;;;;;4996352;28;20485;-79
2021/06/26 08:26:06;;;;;;;39.27;36.87;;;24.10;62.90;;;;;;5076637;28;20464;-79
2021/06/26 08:28:33;;;;;;;35.67;33.57;;;24.10;63.50;;;;;;4979512;28;20504;-79
2021/06/26 08:31:00;;;;;;;38.40;36.00;;;24.10;64.00;;;;;;4975465;28;20486;-79
2021/06/26 08:33:28;;;;;;;37.67;35.37;;;24.30;63.60;;;;;;4972869;28;20506;-80
2021/06/26 08:35:55;;;;;;;36.90;34.80;;;24.30;63.00;;;;;;4974187;28;20505;-80
2021/06/26 08:38:22;;;;;;;37.47;35.03;;;24.60;63.10;;;;;;4977341;28;20525;-80
2021/06/26 08:40:54;;;;;;;38.50;36.10;;;25.00;61.50;;;;;;4986667;28;20474;-80
2021/06/26 08:43:24;;;;;;;40.30;37.77;;;25.10;61.80;;;;;;4990072;28;20469;-79
2021/06/26 08:45:51;;;;;;;39.60;37.33;;;25.20;60.00;;;;;;5014133;28;20813;-80
2021/06/26 08:48:20;;;;;;;39.10;36.80;;;25.20;60.30;;;;;;5007865;28;20471;-80
2021/06/26 08:50:48;;;;;;;37.80;35.70;;;24.90;60.10;;;;;;5001042;28;20562;-79
2021/06/26 08:53:15;;;;;;;38.50;36.40;;;24.90;60.20;;;;;;4974301;28;20542;-80
2021/06/26 08:55:42;;;;;;;37.80;35.60;;;25.20;60.10;;;;;;4974372;28;20993;-80
2021/06/26 08:58:09;;;;;;;40.17;37.57;;;25.30;58.90;;;;;;4972671;28;20530;-81
2021/06/26 09:00:36;;;;;;;40.03;37.53;;;25.30;59.20;;;;;;4979721;28;20511;-81
2021/06/26 09:03:11;;;;;;;37.60;35.30;;;25.20;60.00;;;;;;4977653;28;20549;-82
2021/06/26 09:05:40;;;;;;;38.30;36.10;;;25.20;59.10;;;;;;4972839;28;20469;-81
2021/06/26 09:08:14;;;;;;;36.50;34.40;;;25.40;59.20;;;;;;4986280;28;20466;-82
2021/06/26 09:10:42;;;;;;;38.60;36.20;;;25.70;59.20;;;;;;4978357;28;20477;-81
2021/06/26 09:13:15;;;;;;;38.53;36.20;;;26.10;56.60;;;;;;4975988;28;20499;-82
2021/06/26 09:15:43;;;;;;;40.07;37.57;;;26.00;57.00;;;;;;5042398;28;20481;-80
2021/06/26 09:18:18;;;;;;;36.90;34.60;;;25.80;57.60;;;;;;4997221;28;20575;-80
2021/06/26 09:20:49;;;;;;;39.83;36.97;;;25.50;57.80;;;;;;4973450;28;20486;-80
2021/06/26 09:23:20;;;;;;;39.03;36.73;;;25.30;58.20;;;;;;4973386;28;20466;-80
2021/06/26 09:25:48;;;;;;;38.57;36.27;;;25.20;57.80;;;;;;4954716;28;20585;-80
2021/06/26 09:28:24;;;;;;;38.50;36.20;;;25.00;58.30;;;;;;4999815;28;20546;-79
2021/06/26 09:30:52;;;;;;;38.00;35.70;;;25.20;58.10;;;;;;4988629;28;20489;-85
2021/06/26 09:33:22;;;;;;;39.87;37.27;;;25.20;58.10;;;;;;4964673;28;20544;-80
2021/06/26 09:36:01;;;;;;;39.27;36.50;;;25.10;59.30;;;;;;4981932;28;20481;-82
2021/06/26 09:38:31;;;;;;;37.60;35.07;;;25.20;58.70;;;;;;4965466;28;20579;-82
2021/06/26 09:40:59;;;;;;;36.17;34.03;;;25.10;58.10;;;;;;4973828;28;20791;-78
2021/06/26 09:43:28;;;;;;;35.27;33.17;;;25.00;58.90;;;;;;5021472;28;20526;-83
2021/06/26 09:46:06;;;;;;;37.03;34.87;;;25.30;59.30;;;;;;5006595;28;20451;-79
2021/06/26 09:48:33;;;;;;;35.53;33.47;;;25.90;57.10;;;;;;5014708;28;20461;-89
2021/06/26 09:51:00;;;;;;;38.20;35.87;;;26.20;56.30;;;;;;4976524;28;20849;-88
2021/06/26 09:53:28;;;;;;;35.37;33.37;;;26.20;55.00;;;;;;4984150;28;20477;-81
2021/06/26 09:55:57;;;;;;;37.77;35.57;;;26.50;55.40;;;;;;4962776;28;20892;-82
2021/06/26 09:58:25;;;;;;;39.17;36.67;;;26.60;55.90;;;;;;4959090;28;20463;-82
2021/06/26 10:00:52;;;;;;;39.33;37.03;;;26.90;55.20;;;;;;4961586;28;20462;-83
2021/06/26 10:03:20;;;;;;;39.00;36.60;;;26.90;54.80;;;;;;4957448;28;20999;-83
2021/06/26 10:05:48;;;;;;;41.13;38.50;;;26.90;55.50;;;;;;4962914;28;20516;-83
2021/06/26 10:08:17;;;;;;;36.90;34.60;;;26.50;55.90;;;;;;4963080;28;20819;-84
2021/06/26 10:10:44;;;;;;;38.20;36.00;;;26.10;56.80;;;;;;4961577;28;20541;-84
2021/06/26 10:13:13;;;;;;;37.13;34.83;;;26.00;56.40;;;;;;4958662;28;20479;-85
2021/06/26 10:15:41;;;;;;;35.10;33.10;;;26.20;56.30;;;;;;4975182;28;20465;-84
2021/06/26 10:18:11;;;;;;;36.60;34.27;;;26.40;56.00;;;;;;4981664;28;20451;-85
2021/06/26 10:20:39;;;;;;;38.00;35.80;;;26.50;56.00;;;;;;4972879;28;20961;-85
2021/06/26 10:23:06;;;;;;;37.83;35.53;;;26.70;54.60;;;;;;4961022;28;20465;-84
2021/06/26 10:25:35;;;;;;;37.00;34.60;;;26.40;54.80;;;;;;4960149;28;20485;-83
2021/06/26 10:28:04;;;;;;;36.90;34.50;;;26.20;55.60;;;;;;4962512;28;20506;-84
2021/06/26 10:30:34;;;;;;;36.57;34.37;;;26.00;55.70;;;;;;4957546;28;20462;-83
2021/06/26 10:33:02;;;;;;;36.13;33.83;;;26.00;55.70;;;;;;4969505;28;20465;-85
2021/06/26 10:35:33;;;;;;;37.57;35.37;;;25.60;57.30;;;;;;4969210;28;20489;-84
2021/06/26 10:38:06;;;;;;;35.70;33.53;;;25.60;57.00;;;;;;4959587;28;20570;-83
2021/06/26 10:40:42;;;;;;;37.47;35.27;;;25.90;56.20;;;;;;4972806;28;20943;-80
2021/06/26 10:43:22;;;;;;;39.07;36.53;;;26.20;55.80;;;;;;4958672;28;20451;-84
2021/06/26 10:45:53;;;;;;;37.97;35.70;;;26.70;54.50;;;;;;4994070;28;20463;-83
2021/06/26 10:48:22;;;;;;;38.87;36.17;;;27.20;53.90;;;;;;4955814;28;20494;-84
2021/06/26 10:50:51;;;;;;;38.13;35.83;;;27.50;53.00;;;;;;4961790;28;20458;-84
2021/06/26 10:53:27;;;;;;;37.50;35.30;;;27.50;53.20;;;;;;5004880;28;20484;-83
2021/06/26 10:56:03;;;;;;;36.50;34.30;;;27.50;52.60;;;;;;5060773;28;20814;-84
2021/06/26 10:58:31;;;;;;;36.87;34.67;;;27.20;52.90;;;;;;5000733;28;20545;-80
2021/06/26 11:01:10;;;;;;;37.23;35.13;;;27.20;53.70;;;;;;5056665;28;20450;-81
2021/06/26 11:03:37;;;;;;;36.53;34.30;;;27.60;52.20;;;;;;4971085;28;20518;-85
2021/06/26 11:06:15;;;;;;;35.87;33.87;;;27.80;52.70;;;;;;5019672;28;20450;-83
2021/06/26 11:08:42;;;;;;;36.13;34.03;;;28.30;50.90;;;;;;4963419;28;20501;-82
2021/06/26 11:11:09;;;;;;;36.33;34.10;;;28.40;50.80;;;;;;5003547;28;20461;-82
2021/06/26 11:13:36;;;;;;;37.93;35.60;;;28.50;50.70;;;;;;4963991;28;20501;-78
2021/06/26 11:16:09;;;;;;;32.80;30.90;;;28.20;50.70;;;;;;4975082;28;20465;-79
2021/06/26 11:18:37;;;;;;;34.47;32.47;;;28.50;50.70;;;;;;4976952;28;20483;-82
2021/06/26 11:21:05;;;;;;;34.37;32.37;;;28.50;49.50;;;;;;4982367;28;20473;-84
2021/06/26 11:23:32;;;;;;;35.53;33.33;;;28.40;50.50;;;;;;5024385;28;20757;-81
2021/06/26 11:26:03;;;;;;;34.97;32.87;;;28.60;50.30;;;;;;5062520;28;20540;-81
2021/06/26 11:28:30;;;;;;;38.87;36.57;;;28.40;50.80;;;;;;4982831;28;20467;-80
2021/06/26 11:31:03;;;;;;;38.30;35.80;;;28.40;51.30;;;;;;4982337;28;20556;-81
2021/06/26 11:33:33;;;;;;;36.60;34.43;;;27.90;52.20;;;;;;4961425;28;20574;-79
2021/06/26 11:36:00;;;;;;;38.13;35.93;;;27.40;52.90;;;;;;4953235;28;20564;-80
2021/06/26 11:38:27;;;;;;;35.27;33.27;;;27.10;53.30;;;;;;4975006;28;20546;-80
2021/06/26 11:41:02;;;;;;;37.07;34.87;;;27.00;54.00;;;;;;4999840;28;20817;-80
2021/06/26 11:43:29;;;;;;;35.90;33.73;;;27.20;54.00;;;;;;4978824;28;20763;-82
2021/06/26 11:45:56;;;;;;;35.50;33.40;;;27.50;54.30;;;;;;4979037;28;20557;-84
2021/06/26 11:48:23;;;;;;;34.60;32.60;;;27.70;52.70;;;;;;5002663;28;20503;-84
2021/06/26 11:50:55;;;;;;;37.13;34.97;;;27.60;51.90;;;;;;4964470;28;20472;-85
2021/06/26 11:53:26;;;;;;;36.13;34.03;;;27.60;52.60;;;;;;4969754;28;20483;-83
2021/06/26 11:55:58;;;;;;;36.63;34.20;;;27.50;52.00;;;;;;5006500;28;20507;-84
2021/06/26 11:58:37;;;;;;;37.30;35.10;;;27.50;53.10;;;;;;4976392;28;20490;-86
2021/06/26 12:01:06;;;;;;;36.17;34.00;;;27.70;53.50;;;;;;4964605;28;20873;-85
2021/06/26 12:03:33;;;;;;;39.90;37.80;;;28.20;53.00;;;;;;4980733;28;20471;-84
2021/06/26 12:06:02;;;;;;;33.63;31.57;;;28.50;51.10;;;;;;4968081;28;20952;-86
2021/06/26 12:08:31;;;;;;;35.80;33.70;;;28.50;50.70;;;;;;4969921;28;20459;-86
2021/06/26 12:10:58;;;;;;;36.30;34.03;;;28.70;49.90;;;;;;4971938;28;20534;-87
2021/06/26 12:13:25;;;;;;;36.70;34.50;;;28.80;50.50;;;;;;4973529;28;20479;-87
2021/06/26 12:15:53;;;;;;;33.70;31.80;;;28.60;50.20;;;;;;4972243;28;20462;-87
2021/06/26 12:18:19;;;;;;;34.10;32.00;;;28.50;50.40;;;;;;4968518;28;20554;-86
2021/06/26 12:20:46;;;;;;;34.53;32.43;;;28.40;50.60;;;;;;4972809;28;20880;-83
2021/06/26 12:23:15;;;;;;;36.47;34.37;;;28.70;51.10;;;;;;4973987;28;20454;-82
2021/06/26 12:25:43;;;;;;;36.10;33.80;;;28.90;50.70;;;;;;4987208;28;20470;-80
2021/06/26 12:28:11;;;;;;;33.80;31.90;;;28.90;49.70;;;;;;5031042;28;20531;-79
2021/06/26 12:30:39;;;;;;;35.67;33.67;;;29.00;49.40;;;;;;5042954;28;21023;-80
2021/06/26 12:33:08;;;;;;;32.97;31.10;;;29.00;49.90;;;;;;4986885;28;20478;-82